Terminal Aerodrome Forecast
Issued by NWS

Home | Current Version | Previous Version | Text Only | Print | Product List | Glossary On
Versions: 1 2 3 4 5 6 7 8 9 10 11 12 13 14 15 16 17 18 19
000
FTUS42 KMHX 220544
TAFISO
TAF
KISO 220544Z 2206/2306 19005KT P6SM FEW008
      TEMPO 2208/2210 3SM BR OVC008
     FM221000 VRB03KT 3/4SM BR OVC003
     FM221500 21008KT P6SM BKN025
     FM221700 22009KT P6SM SCT050
      AMD LTD TO CLD VIS AND WIND=

USA.gov is the U.S. government's official web portal to all federal, state and local government web resources and services.